Mark Shell — WDI7434 — position and weather

sailwx.info

Track history (hours):
 
Tides and Currents Weather Stations Pressure Air Temp Water Temp Dewpoint Dewpoint Depression Visibility Wind Speed Wind Dir Waves Ship Positions

Mark Shell

Owner: Kirby Inland Marine LP, Houston, TX. More information available from US FCC via Universal Licensing System and Coast Guard Vessel Documentation Center.

Last reported at 2017-Dec-16 14:10 UTC. Time now 2017-Dec-17 04:04 UTC.
Position N 29°47' W 095°04'.

Length 30 m; draft 3 m.

Type: . MMSI: 367728680.

Date/timePositionNaut miles runAvg speedWind from/ knotsBaromVisibWave heightAir tempDewpointWater temp
2017-Dec-16 14:10N 29°47' W 095°04'0 0.0
2017-Dec-16 13:58N 29°47' W 095°04'0 0.4
2017-Dec-16 13:29N 29°47' W 095°04'0 0.3
2017-Dec-16 13:00N 29°47' W 095°04'0 0.0
2017-Dec-16 10:57N 29°47' W 095°04'0 0.7
2017-Dec-16 10:27N 29°47' W 095°05'0 0.0
2017-Dec-16 10:00N 29°47' W 095°05'0 0.0
2017-Dec-16 09:27N 29°47' W 095°05'0 0.0
2017-Dec-16 09:00N 29°47' W 095°05'0 0.0
2017-Dec-16 08:30N 29°47' W 095°05'0 0.0
2017-Dec-16 08:00N 29°47' W 095°05'0 0.0
2017-Dec-16 07:30N 29°47' W 095°05'0 0.0
2017-Dec-16 07:00N 29°47' W 095°05'0 0.0
2017-Dec-16 06:27N 29°47' W 095°05'0 0.0
2017-Dec-16 06:00N 29°47' W 095°05'0 0.0
2017-Dec-16 05:31N 29°47' W 095°05'1 0.3
2017-Dec-16 03:26N 29°47' W 095°04'1 0.2
2017-Dec-15 23:26N 29°46' W 095°05'1 0.5
2017-Dec-15 20:24N 29°45' W 095°06'2 1.4
2017-Dec-15 19:04N 29°47' W 095°05'0 5.4
2017-Dec-15 19:00N 29°47' W 095°05'1 1.9
2017-Dec-15 18:29N 29°46' W 095°05'2 0.1
2017-Dec-14 13:43N 29°47' W 095°04'0 0.0
2017-Dec-14 13:27N 29°47' W 095°04'0 0.6
2017-Dec-14 12:59N 29°47' W 095°04'0 0.0
2017-Dec-14 12:29N 29°47' W 095°04'0 0.0
2017-Dec-14 11:56N 29°47' W 095°04'0 0.1
2017-Dec-14 11:17N 29°47' W 095°04'0 0.0
2017-Dec-14 10:11N 29°47' W 095°04'0 0.0
2017-Dec-14 10:00N 29°47' W 095°04'2 4.9
2017-Dec-14 09:30N 29°46' W 095°06'0 0.5
2017-Dec-14 09:00N 29°45' W 095°06'2 3.7
2017-Dec-14 08:28N 29°47' W 095°04'0 0.6
2017-Dec-14 07:58N 29°47' W 095°04'0 0.0
2017-Dec-14 06:55N 29°47' W 095°04'0 0.0
2017-Dec-14 06:04N 29°47' W 095°04'0 0.0
2017-Dec-14 05:52N 29°47' W 095°04'0 0.0
2017-Dec-14 05:16N 29°47' W 095°04'0 0.0
2017-Dec-14 04:58N 29°47' W 095°04'0 0.0
2017-Dec-14 04:13N 29°47' W 095°04'0 0.0
2017-Dec-14 03:40N 29°47' W 095°04'0 0.0
2017-Dec-14 03:28N 29°47' W 095°04'0 0.1
2017-Dec-14 00:27N 29°47' W 095°04'0 0.2
2017-Dec-13 23:47N 29°47' W 095°04'0 0.4
2017-Dec-13 23:16N 29°47' W 095°04'0 0.6
2017-Dec-13 22:57N 29°47' W 095°05'1 3.2
2017-Dec-13 22:30N 29°45' W 095°04'2 4.4
2017-Dec-13 22:00N 29°44' W 095°02'3 5.4
2017-Dec-13 21:30N 29°42' W 095°00'3 6.6
2017-Dec-13 21:00N 29°39' W 094°58'3 6.8
2017-Dec-13 20:30N 29°36' W 094°57'4 7.3
2017-Dec-13 20:00N 29°33' W 094°54'3 5.7
2017-Dec-13 19:28N 29°30' W 094°52'54 3.7
2017-Dec-13 04:54N 29°52' W 093°56'2 6.0
2017-Dec-13 04:29N 29°54' W 093°54'10 5.4
2017-Dec-13 02:42N 30°00' W 093°46'2 5.9
2017-Dec-13 02:24N 30°01' W 093°44'2 5.5
2017-Dec-13 01:59N 30°03' W 093°43'2 3.9
2017-Dec-13 01:30N 30°04' W 093°41'2 4.2
2017-Dec-13 01:00N 30°04' W 093°38'2 4.3
2017-Dec-13 00:30N 30°04' W 093°36'2 4.0
2017-Dec-13 00:00N 30°04' W 093°33'2 4.2
2017-Dec-12 23:30N 30°04' W 093°31'2 4.4
2017-Dec-12 23:00N 30°04' W 093°29'2 4.5
2017-Dec-12 22:30N 30°04' W 093°26'2 4.6
2017-Dec-12 22:00N 30°04' W 093°23'2 3.5
2017-Dec-12 21:30N 30°04' W 093°21'2 3.5
2017-Dec-12 21:00N 30°05' W 093°20'2 3.0
2017-Dec-12 20:30N 30°07' W 093°20'2 4.9
2017-Dec-12 20:00N 30°09' W 093°20'2 3.0
2017-Dec-12 19:29N 30°10' W 093°19'0 0.1
2017-Dec-12 18:59N 30°10' W 093°19'0 0.3
2017-Dec-12 18:29N 30°10' W 093°19'0 0.1
2017-Dec-12 17:59N 30°10' W 093°19'0 0.0
2017-Dec-12 17:29N 30°10' W 093°19'0 0.0
2017-Dec-12 16:59N 30°10' W 093°19'0 0.0
2017-Dec-12 16:29N 30°10' W 093°19'0 0.0
2017-Dec-12 15:59N 30°10' W 093°19'0 0.0
2017-Dec-12 15:29N 30°10' W 093°19'0 0.0
2017-Dec-12 14:59N 30°10' W 093°19'0 0.0
2017-Dec-12 14:29N 30°10' W 093°19'0 0.0
2017-Dec-12 13:59N 30°10' W 093°19'0 0.0
2017-Dec-12 13:29N 30°10' W 093°19'0 0.0
2017-Dec-12 12:59N 30°10' W 093°19'0 0.0
2017-Dec-12 12:29N 30°10' W 093°19'0 0.0
2017-Dec-12 10:59N 30°10' W 093°19'0 0.0
2017-Dec-12 10:29N 30°10' W 093°19'0 0.0
2017-Dec-11 19:35N 30°10' W 093°19'0 0.0
2017-Dec-11 19:29N 30°10' W 093°19'0 0.0
2017-Dec-11 18:59N 30°10' W 093°19'0 0.0
2017-Dec-11 18:29N 30°10' W 093°19'0 0.0
2017-Dec-11 17:59N 30°10' W 093°19'0 0.0
2017-Dec-11 17:29N 30°10' W 093°19'0 0.0
2017-Dec-11 16:59N 30°10' W 093°19'0 0.0
2017-Dec-11 16:29N 30°10' W 093°19'0 0.0
2017-Dec-11 15:59N 30°10' W 093°19'0 0.0
2017-Dec-11 15:29N 30°10' W 093°19'0 0.0
2017-Dec-11 14:23N 30°10' W 093°19'0 0.0
2017-Dec-11 13:59N 30°10' W 093°19'0 0.0
2017-Dec-11 13:29N 30°10' W 093°19'0 0.0
2017-Dec-11 12:59N 30°10' W 093°19'0 0.0
2017-Dec-11 12:29N 30°10' W 093°19'0 0.0
2017-Dec-11 11:59N 30°10' W 093°19'0 0.0
2017-Dec-11 11:29N 30°10' W 093°19'0 0.0
2017-Dec-11 10:59N 30°10' W 093°19'0 0.0
2017-Dec-11 10:29N 30°10' W 093°19'0 0.0
2017-Dec-11 09:59N 30°10' W 093°19'0 0.0
2017-Dec-11 09:29N 30°10' W 093°19'0 0.0
2017-Dec-11 08:59N 30°10' W 093°19'0 0.0
2017-Dec-11 08:29N 30°10' W 093°19'0 0.0
2017-Dec-11 07:59N 30°10' W 093°19'0 0.0
2017-Dec-11 07:29N 30°10' W 093°19'0 0.0
2017-Dec-11 06:59N 30°10' W 093°19'0 0.0
2017-Dec-11 06:29N 30°10' W 093°19'0 0.0
2017-Dec-11 05:59N 30°10' W 093°19'0 0.0
2017-Dec-11 05:30N 30°10' W 093°19'0 0.1
2017-Dec-11 04:58N 30°10' W 093°19'0 0.0
2017-Dec-11 04:28N 30°10' W 093°19'0 0.0
2017-Dec-11 03:58N 30°10' W 093°19'0 0.0
2017-Dec-11 03:28N 30°10' W 093°19'1 1.4
2017-Dec-11 03:00N 30°10' W 093°19'4 7.7
2017-Dec-11 02:30N 30°06' W 093°20'2 4.8
2017-Dec-11 02:00N 30°04' W 093°21'1 1.9
2017-Dec-11 01:29N 30°04' W 093°22'1 1.8
2017-Dec-11 01:01N 30°04' W 093°21'2 4.0
2017-Dec-11 00:31N 30°05' W 093°20'2 2.9
2017-Dec-10 23:59N 30°06' W 093°18'0 0.0
2017-Dec-10 23:29N 30°06' W 093°18'0 0.0
2017-Dec-10 22:59N 30°06' W 093°18'0 0.0
2017-Dec-10 22:29N 30°06' W 093°18'0 0.0
2017-Dec-10 21:59N 30°06' W 093°18'0 0.0
2017-Dec-10 21:29N 30°06' W 093°18'0 0.0
2017-Dec-10 20:59N 30°06' W 093°18'0 0.0
2017-Dec-10 20:29N 30°06' W 093°18'0 0.0
2017-Dec-10 19:59N 30°06' W 093°18'0 0.0
2017-Dec-10 19:29N 30°06' W 093°18'0 0.8
2017-Dec-10 19:00N 30°06' W 093°19'3 6.2
2017-Dec-10 18:30N 30°04' W 093°21'1 1.1
2017-Dec-10 18:00N 30°04' W 093°22'0 0.0
2017-Dec-10 17:30N 30°04' W 093°22'0 0.0
2017-Dec-10 17:00N 30°04' W 093°22'0 0.0
2017-Dec-10 16:30N 30°04' W 093°22'0 0.0
2017-Dec-10 16:00N 30°04' W 093°22'0 0.0
2017-Dec-10 15:30N 30°04' W 093°22'0 0.0
2017-Dec-10 15:00N 30°04' W 093°22'0 0.0
2017-Dec-10 14:30N 30°04' W 093°22'0 0.0
2017-Dec-10 14:00N 30°04' W 093°22'0 0.0
2017-Dec-10 13:30N 30°04' W 093°22'0 0.0
2017-Dec-10 13:00N 30°04' W 093°22'0 0.0
2017-Dec-10 12:24N 30°04' W 093°22'0 0.0
2017-Dec-10 12:00N 30°04' W 093°22'0 0.0
2017-Dec-10 11:30N 30°04' W 093°22'0 0.0
2017-Dec-10 11:00N 30°04' W 093°22'0 0.0
2017-Dec-10 10:27N 30°04' W 093°22'0 0.0
2017-Dec-10 10:00N 30°04' W 093°22'0 0.0
2017-Dec-10 09:30N 30°04' W 093°22'0 0.0
2017-Dec-10 09:00N 30°04' W 093°22'0 0.0
2017-Dec-10 08:30N 30°04' W 093°22'0 0.0
2017-Dec-10 08:00N 30°04' W 093°22'0 0.0
2017-Dec-10 07:30N 30°04' W 093°22'0 0.0
2017-Dec-10 07:00N 30°04' W 093°22'0 0.0
2017-Dec-10 06:30N 30°04' W 093°22'0 0.0
2017-Dec-10 06:00N 30°04' W 093°22'0 0.0
2017-Dec-10 05:30N 30°04' W 093°22'0 0.0
2017-Dec-10 05:00N 30°04' W 093°22'0 0.0
2017-Dec-10 04:30N 30°04' W 093°22'0 0.0
2017-Dec-10 04:00N 30°04' W 093°22'0 0.0
2017-Dec-10 03:30N 30°04' W 093°22'0 0.0
2017-Dec-10 03:00N 30°04' W 093°22'0 0.6
2017-Dec-10 02:29N 30°04' W 093°21'1 1.3
2017-Dec-10 02:00N 30°04' W 093°22'1 1.1
2017-Dec-10 01:30N 30°04' W 093°21'0 0.3
2017-Dec-10 00:58N 30°04' W 093°21'0 0.0
2017-Dec-10 00:28N 30°04' W 093°21'0 0.0
2017-Dec-09 23:58N 30°04' W 093°21'0 0.0
2017-Dec-09 23:28N 30°04' W 093°21'0 0.0
2017-Dec-09 22:58N 30°04' W 093°21'0 0.0
2017-Dec-09 22:28N 30°04' W 093°21'0 0.0
2017-Dec-09 21:58N 30°04' W 093°21'0 0.1
2017-Dec-09 21:28N 30°04' W 093°21'1 1.5
2017-Dec-09 21:00N 30°04' W 093°22'0 0.1
2017-Dec-09 20:30N 30°04' W 093°22'1 1.3
2017-Dec-09 19:59N 30°04' W 093°21'0 0.1
2017-Dec-09 19:29N 30°04' W 093°21'0 0.0
2017-Dec-09 18:59N 30°04' W 093°21'0 0.0
2017-Dec-09 18:29N 30°04' W 093°21'0 0.0
2017-Dec-09 17:59N 30°04' W 093°21'0 0.0
2017-Dec-09 17:29N 30°04' W 093°21'0 0.0
2017-Dec-09 16:59N 30°04' W 093°21'0 0.0
2017-Dec-09 16:29N 30°04' W 093°21'0 0.0
2017-Dec-09 15:59N 30°04' W 093°21'0 0.0
2017-Dec-09 15:29N 30°04' W 093°21'0 0.0
2017-Dec-09 14:59N 30°04' W 093°21'0 0.0
2017-Dec-09 14:29N 30°04' W 093°21'0 0.0
2017-Dec-09 13:59N 30°04' W 093°21'0 0.0
2017-Dec-09 13:29N 30°04' W 093°21'0 0.0
2017-Dec-09 12:59N 30°04' W 093°21'1 1.3
2017-Dec-09 12:31N 30°04' W 093°22'0 0.1
2017-Dec-09 12:00N 30°04' W 093°22'0 0.2
2017-Dec-09 11:28N 30°04' W 093°22'0 0.0
2017-Dec-09 10:58N 30°04' W 093°22'0 0.0
2017-Dec-09 10:28N 30°04' W 093°22'0 0.0
2017-Dec-09 09:58N 30°04' W 093°22'0 0.0
2017-Dec-09 09:28N 30°04' W 093°22'0 0.0
2017-Dec-09 08:58N 30°04' W 093°22'0 0.0
2017-Dec-09 08:28N 30°04' W 093°22'0 0.1
2017-Dec-09 07:58N 30°04' W 093°22'2 3.7
2017-Dec-09 07:30N 30°04' W 093°24'3 5.8
2017-Dec-09 07:00N 30°04' W 093°27'3 5.7
2017-Dec-09 06:31N 30°04' W 093°31'3 5.9
2017-Dec-09 06:01N 30°04' W 093°34'3 6.3
2017-Dec-09 05:31N 30°04' W 093°38'3 6.0
2017-Dec-09 04:59N 30°03' W 093°41'0 0.0
2017-Dec-09 04:29N 30°03' W 093°41'1 1.1
2017-Dec-09 04:00N 30°03' W 093°42'21 1.3
2017-Dec-08 12:27N 30°06' W 093°18'0 0.0
2017-Dec-08 10:36N 30°06' W 093°18'0 0.1
2017-Dec-08 10:30N 30°06' W 093°18'0 0.0
2017-Dec-08 10:00N 30°06' W 093°18'0 0.1
2017-Dec-08 09:30N 30°06' W 093°18'1 1.7
2017-Dec-08 08:59N 30°05' W 093°17'2 3.2
2017-Dec-08 08:30N 30°04' W 093°16'1 1.4
2017-Dec-08 08:00N 30°03' W 093°16'0 0.0
2017-Dec-08 07:30N 30°03' W 093°16'0 0.1
2017-Dec-08 07:00N 30°03' W 093°16'1 1.7
2017-Dec-08 06:28N 30°03' W 093°16'0 0.0
2017-Dec-08 05:58N 30°03' W 093°16'0 0.0
2017-Dec-08 05:28N 30°03' W 093°16'0 0.0
2017-Dec-08 04:58N 30°03' W 093°16'0 0.0
2017-Dec-08 04:28N 30°03' W 093°16'0 0.3
2017-Dec-08 03:58N 30°02' W 093°16'2 3.5
2017-Dec-08 03:30N 30°01' W 093°14'2 3.9
2017-Dec-08 02:59N 29°60' W 093°13'0 0.4
2017-Dec-08 02:29N 29°59' W 093°13'0 0.0
2017-Dec-08 01:59N 29°59' W 093°13'0 0.0
2017-Dec-08 01:29N 29°59' W 093°13'0 0.0
2017-Dec-08 00:59N 29°59' W 093°13'0 0.0
2017-Dec-08 00:29N 29°59' W 093°13'0 0.0
2017-Dec-07 23:59N 29°59' W 093°13'0 0.2
2017-Dec-07 23:29N 29°59' W 093°13'1 1.6
2017-Dec-07 23:01N 29°59' W 093°12'2 3.7
2017-Dec-07 22:31N 29°57' W 093°11'2 4.5
2017-Dec-07 22:01N 29°56' W 093°09'2 4.8
2017-Dec-07 21:30N 29°56' W 093°06'2 3.7
2017-Dec-07 20:57N 29°56' W 093°04'32 4.7
2017-Dec-07 14:12N 29°54' W 092°27'2 5.5
2017-Dec-07 13:53N 29°53' W 092°25'2 4.9
2017-Dec-07 13:24N 29°52' W 092°23'2 4.5
2017-Dec-07 13:00N 29°51' W 092°21'2 3.0
2017-Dec-07 12:31N 29°50' W 092°19'2 3.4
2017-Dec-07 12:00N 29°50' W 092°18'2 4.5
2017-Dec-07 11:30N 29°48' W 092°16'3 5.0
2017-Dec-07 11:00N 29°47' W 092°13'2 3.9
2017-Dec-07 10:29N 29°47' W 092°11'2 3.7
2017-Dec-07 10:00N 29°47' W 092°09'2 4.1
2017-Dec-07 09:30N 29°48' W 092°07'2 4.0
2017-Dec-07 09:00N 29°48' W 092°04'2 3.9
2017-Dec-07 08:30N 29°49' W 092°02'3 4.3
2017-Dec-07 07:55N 29°50' W 091°60'2 4.2
2017-Dec-07 07:30N 29°50' W 091°58'2 4.1
2017-Dec-07 07:00N 29°51' W 091°55'  
Track history (hours):
 
Tides and Currents Weather Stations Pressure Air Temp Water Temp Dewpoint Dewpoint Depression Visibility Wind Speed Wind Dir Waves Ship Positions

Mark Shell

Owner: Kirby Inland Marine LP, Houston, TX. More information available from US FCC via Universal Licensing System and Coast Guard Vessel Documentation Center.

Last reported at 2017-Dec-16 14:10 UTC. Time now 2017-Dec-17 04:04 UTC.
Position N 29°47' W 095°04'.

Length 30 m; draft 3 m.

Type: . MMSI: 367728680.

Date/timePositionNaut miles runAvg speedWind from/ knotsBaromVisibWave heightAir tempDewpointWater temp
2017-Dec-16 14:10N 29°47' W 095°04'0 0.0
2017-Dec-16 13:58N 29°47' W 095°04'0 0.4
2017-Dec-16 13:29N 29°47' W 095°04'0 0.3
2017-Dec-16 13:00N 29°47' W 095°04'0 0.0
2017-Dec-16 10:57N 29°47' W 095°04'0 0.7
2017-Dec-16 10:27N 29°47' W 095°05'0 0.0
2017-Dec-16 10:00N 29°47' W 095°05'0 0.0
2017-Dec-16 09:27N 29°47' W 095°05'0 0.0
2017-Dec-16 09:00N 29°47' W 095°05'0 0.0
2017-Dec-16 08:30N 29°47' W 095°05'0 0.0
2017-Dec-16 08:00N 29°47' W 095°05'0 0.0
2017-Dec-16 07:30N 29°47' W 095°05'0 0.0
2017-Dec-16 07:00N 29°47' W 095°05'0 0.0
2017-Dec-16 06:27N 29°47' W 095°05'0 0.0
2017-Dec-16 06:00N 29°47' W 095°05'0 0.0
2017-Dec-16 05:31N 29°47' W 095°05'1 0.3
2017-Dec-16 03:26N 29°47' W 095°04'1 0.2
2017-Dec-15 23:26N 29°46' W 095°05'1 0.5
2017-Dec-15 20:24N 29°45' W 095°06'2 1.4
2017-Dec-15 19:04N 29°47' W 095°05'0 5.4
2017-Dec-15 19:00N 29°47' W 095°05'1 1.9
2017-Dec-15 18:29N 29°46' W 095°05'2 0.1
2017-Dec-14 13:43N 29°47' W 095°04'0 0.0
2017-Dec-14 13:27N 29°47' W 095°04'0 0.6
2017-Dec-14 12:59N 29°47' W 095°04'0 0.0
2017-Dec-14 12:29N 29°47' W 095°04'0 0.0
2017-Dec-14 11:56N 29°47' W 095°04'0 0.1
2017-Dec-14 11:17N 29°47' W 095°04'0 0.0
2017-Dec-14 10:11N 29°47' W 095°04'0 0.0
2017-Dec-14 10:00N 29°47' W 095°04'2 4.9
2017-Dec-14 09:30N 29°46' W 095°06'0 0.5
2017-Dec-14 09:00N 29°45' W 095°06'2 3.7
2017-Dec-14 08:28N 29°47' W 095°04'0 0.6
2017-Dec-14 07:58N 29°47' W 095°04'0 0.0
2017-Dec-14 06:55N 29°47' W 095°04'0 0.0
2017-Dec-14 06:04N 29°47' W 095°04'0 0.0
2017-Dec-14 05:52N 29°47' W 095°04'0 0.0
2017-Dec-14 05:16N 29°47' W 095°04'0 0.0
2017-Dec-14 04:58N 29°47' W 095°04'0 0.0
2017-Dec-14 04:13N 29°47' W 095°04'0 0.0
2017-Dec-14 03:40N 29°47' W 095°04'0 0.0
2017-Dec-14 03:28N 29°47' W 095°04'0 0.1
2017-Dec-14 00:27N 29°47' W 095°04'0 0.2
2017-Dec-13 23:47N 29°47' W 095°04'0 0.4
2017-Dec-13 23:16N 29°47' W 095°04'0 0.6
2017-Dec-13 22:57N 29°47' W 095°05'1 3.2
2017-Dec-13 22:30N 29°45' W 095°04'2 4.4
2017-Dec-13 22:00N 29°44' W 095°02'3 5.4
2017-Dec-13 21:30N 29°42' W 095°00'3 6.6
2017-Dec-13 21:00N 29°39' W 094°58'3 6.8
2017-Dec-13 20:30N 29°36' W 094°57'4 7.3
2017-Dec-13 20:00N 29°33' W 094°54'3 5.7
2017-Dec-13 19:28N 29°30' W 094°52'54 3.7
2017-Dec-13 04:54N 29°52' W 093°56'2 6.0
2017-Dec-13 04:29N 29°54' W 093°54'10 5.4
2017-Dec-13 02:42N 30°00' W 093°46'2 5.9
2017-Dec-13 02:24N 30°01' W 093°44'2 5.5
2017-Dec-13 01:59N 30°03' W 093°43'2 3.9
2017-Dec-13 01:30N 30°04' W 093°41'2 4.2
2017-Dec-13 01:00N 30°04' W 093°38'2 4.3
2017-Dec-13 00:30N 30°04' W 093°36'2 4.0
2017-Dec-13 00:00N 30°04' W 093°33'2 4.2
2017-Dec-12 23:30N 30°04' W 093°31'2 4.4
2017-Dec-12 23:00N 30°04' W 093°29'2 4.5
2017-Dec-12 22:30N 30°04' W 093°26'2 4.6
2017-Dec-12 22:00N 30°04' W 093°23'2 3.5
2017-Dec-12 21:30N 30°04' W 093°21'2 3.5
2017-Dec-12 21:00N 30°05' W 093°20'2 3.0
2017-Dec-12 20:30N 30°07' W 093°20'2 4.9
2017-Dec-12 20:00N 30°09' W 093°20'2 3.0
2017-Dec-12 19:29N 30°10' W 093°19'0 0.1
2017-Dec-12 18:59N 30°10' W 093°19'0 0.3
2017-Dec-12 18:29N 30°10' W 093°19'0 0.1
2017-Dec-12 17:59N 30°10' W 093°19'0 0.0
2017-Dec-12 17:29N 30°10' W 093°19'0 0.0
2017-Dec-12 16:59N 30°10' W 093°19'0 0.0
2017-Dec-12 16:29N 30°10' W 093°19'0 0.0
2017-Dec-12 15:59N 30°10' W 093°19'0 0.0
2017-Dec-12 15:29N 30°10' W 093°19'0 0.0
2017-Dec-12 14:59N 30°10' W 093°19'0 0.0
2017-Dec-12 14:29N 30°10' W 093°19'0 0.0
2017-Dec-12 13:59N 30°10' W 093°19'0 0.0
2017-Dec-12 13:29N 30°10' W 093°19'0 0.0
2017-Dec-12 12:59N 30°10' W 093°19'0 0.0
2017-Dec-12 12:29N 30°10' W 093°19'0 0.0
2017-Dec-12 10:59N 30°10' W 093°19'0 0.0
2017-Dec-12 10:29N 30°10' W 093°19'0 0.0
2017-Dec-11 19:35N 30°10' W 093°19'0 0.0
2017-Dec-11 19:29N 30°10' W 093°19'0 0.0
2017-Dec-11 18:59N 30°10' W 093°19'0 0.0
2017-Dec-11 18:29N 30°10' W 093°19'0 0.0
2017-Dec-11 17:59N 30°10' W 093°19'0 0.0
2017-Dec-11 17:29N 30°10' W 093°19'0 0.0
2017-Dec-11 16:59N 30°10' W 093°19'0 0.0
2017-Dec-11 16:29N 30°10' W 093°19'0 0.0
2017-Dec-11 15:59N 30°10' W 093°19'0 0.0
2017-Dec-11 15:29N 30°10' W 093°19'0 0.0
2017-Dec-11 14:23N 30°10' W 093°19'0 0.0
2017-Dec-11 13:59N 30°10' W 093°19'0 0.0
2017-Dec-11 13:29N 30°10' W 093°19'0 0.0
2017-Dec-11 12:59N 30°10' W 093°19'0 0.0
2017-Dec-11 12:29N 30°10' W 093°19'0 0.0
2017-Dec-11 11:59N 30°10' W 093°19'0 0.0
2017-Dec-11 11:29N 30°10' W 093°19'0 0.0
2017-Dec-11 10:59N 30°10' W 093°19'0 0.0
2017-Dec-11 10:29N 30°10' W 093°19'0 0.0
2017-Dec-11 09:59N 30°10' W 093°19'0 0.0
2017-Dec-11 09:29N 30°10' W 093°19'0 0.0
2017-Dec-11 08:59N 30°10' W 093°19'0 0.0
2017-Dec-11 08:29N 30°10' W 093°19'0 0.0
2017-Dec-11 07:59N 30°10' W 093°19'0 0.0
2017-Dec-11 07:29N 30°10' W 093°19'0 0.0
2017-Dec-11 06:59N 30°10' W 093°19'0 0.0
2017-Dec-11 06:29N 30°10' W 093°19'0 0.0
2017-Dec-11 05:59N 30°10' W 093°19'0 0.0
2017-Dec-11 05:30N 30°10' W 093°19'0 0.1
2017-Dec-11 04:58N 30°10' W 093°19'0 0.0
2017-Dec-11 04:28N 30°10' W 093°19'0 0.0
2017-Dec-11 03:58N 30°10' W 093°19'0 0.0
2017-Dec-11 03:28N 30°10' W 093°19'1 1.4
2017-Dec-11 03:00N 30°10' W 093°19'4 7.7
2017-Dec-11 02:30N 30°06' W 093°20'2 4.8
2017-Dec-11 02:00N 30°04' W 093°21'1 1.9
2017-Dec-11 01:29N 30°04' W 093°22'1 1.8
2017-Dec-11 01:01N 30°04' W 093°21'2 4.0
2017-Dec-11 00:31N 30°05' W 093°20'2 2.9
2017-Dec-10 23:59N 30°06' W 093°18'0 0.0
2017-Dec-10 23:29N 30°06' W 093°18'0 0.0
2017-Dec-10 22:59N 30°06' W 093°18'0 0.0
2017-Dec-10 22:29N 30°06' W 093°18'0 0.0
2017-Dec-10 21:59N 30°06' W 093°18'0 0.0
2017-Dec-10 21:29N 30°06' W 093°18'0 0.0
2017-Dec-10 20:59N 30°06' W 093°18'0 0.0
2017-Dec-10 20:29N 30°06' W 093°18'0 0.0
2017-Dec-10 19:59N 30°06' W 093°18'0 0.0
2017-Dec-10 19:29N 30°06' W 093°18'0 0.8
2017-Dec-10 19:00N 30°06' W 093°19'3 6.2
2017-Dec-10 18:30N 30°04' W 093°21'1 1.1
2017-Dec-10 18:00N 30°04' W 093°22'0 0.0
2017-Dec-10 17:30N 30°04' W 093°22'0 0.0
2017-Dec-10 17:00N 30°04' W 093°22'0 0.0
2017-Dec-10 16:30N 30°04' W 093°22'0 0.0
2017-Dec-10 16:00N 30°04' W 093°22'0 0.0
2017-Dec-10 15:30N 30°04' W 093°22'0 0.0
2017-Dec-10 15:00N 30°04' W 093°22'0 0.0
2017-Dec-10 14:30N 30°04' W 093°22'0 0.0
2017-Dec-10 14:00N 30°04' W 093°22'0 0.0
2017-Dec-10 13:30N 30°04' W 093°22'0 0.0
2017-Dec-10 13:00N 30°04' W 093°22'0 0.0
2017-Dec-10 12:24N 30°04' W 093°22'0 0.0
2017-Dec-10 12:00N 30°04' W 093°22'0 0.0
2017-Dec-10 11:30N 30°04' W 093°22'0 0.0
2017-Dec-10 11:00N 30°04' W 093°22'0 0.0
2017-Dec-10 10:27N 30°04' W 093°22'0 0.0
2017-Dec-10 10:00N 30°04' W 093°22'0 0.0
2017-Dec-10 09:30N 30°04' W 093°22'0 0.0
2017-Dec-10 09:00N 30°04' W 093°22'0 0.0
2017-Dec-10 08:30N 30°04' W 093°22'0 0.0
2017-Dec-10 08:00N 30°04' W 093°22'0 0.0
2017-Dec-10 07:30N 30°04' W 093°22'0 0.0
2017-Dec-10 07:00N 30°04' W 093°22'0 0.0
2017-Dec-10 06:30N 30°04' W 093°22'0 0.0
2017-Dec-10 06:00N 30°04' W 093°22'0 0.0
2017-Dec-10 05:30N 30°04' W 093°22'0 0.0
2017-Dec-10 05:00N 30°04' W 093°22'0 0.0
2017-Dec-10 04:30N 30°04' W 093°22'0 0.0
2017-Dec-10 04:00N 30°04' W 093°22'0 0.0
2017-Dec-10 03:30N 30°04' W 093°22'0 0.0
2017-Dec-10 03:00N 30°04' W 093°22'0 0.6
2017-Dec-10 02:29N 30°04' W 093°21'1 1.3
2017-Dec-10 02:00N 30°04' W 093°22'1 1.1
2017-Dec-10 01:30N 30°04' W 093°21'0 0.3
2017-Dec-10 00:58N 30°04' W 093°21'0 0.0
2017-Dec-10 00:28N 30°04' W 093°21'0 0.0
2017-Dec-09 23:58N 30°04' W 093°21'0 0.0
2017-Dec-09 23:28N 30°04' W 093°21'0 0.0
2017-Dec-09 22:58N 30°04' W 093°21'0 0.0
2017-Dec-09 22:28N 30°04' W 093°21'0 0.0
2017-Dec-09 21:58N 30°04' W 093°21'0 0.1
2017-Dec-09 21:28N 30°04' W 093°21'1 1.5
2017-Dec-09 21:00N 30°04' W 093°22'0 0.1
2017-Dec-09 20:30N 30°04' W 093°22'1 1.3
2017-Dec-09 19:59N 30°04' W 093°21'0 0.1
2017-Dec-09 19:29N 30°04' W 093°21'0 0.0
2017-Dec-09 18:59N 30°04' W 093°21'0 0.0
2017-Dec-09 18:29N 30°04' W 093°21'0 0.0
2017-Dec-09 17:59N 30°04' W 093°21'0 0.0
2017-Dec-09 17:29N 30°04' W 093°21'0 0.0
2017-Dec-09 16:59N 30°04' W 093°21'0 0.0
2017-Dec-09 16:29N 30°04' W 093°21'0 0.0
2017-Dec-09 15:59N 30°04' W 093°21'0 0.0
2017-Dec-09 15:29N 30°04' W 093°21'0 0.0
2017-Dec-09 14:59N 30°04' W 093°21'0 0.0
2017-Dec-09 14:29N 30°04' W 093°21'0 0.0
2017-Dec-09 13:59N 30°04' W 093°21'0 0.0
2017-Dec-09 13:29N 30°04' W 093°21'0 0.0
2017-Dec-09 12:59N 30°04' W 093°21'1 1.3
2017-Dec-09 12:31N 30°04' W 093°22'0 0.1
2017-Dec-09 12:00N 30°04' W 093°22'0 0.2
2017-Dec-09 11:28N 30°04' W 093°22'0 0.0
2017-Dec-09 10:58N 30°04' W 093°22'0 0.0
2017-Dec-09 10:28N 30°04' W 093°22'0 0.0
2017-Dec-09 09:58N 30°04' W 093°22'0 0.0
2017-Dec-09 09:28N 30°04' W 093°22'0 0.0
2017-Dec-09 08:58N 30°04' W 093°22'0 0.0
2017-Dec-09 08:28N 30°04' W 093°22'0 0.1
2017-Dec-09 07:58N 30°04' W 093°22'2 3.7
2017-Dec-09 07:30N 30°04' W 093°24'3 5.8
2017-Dec-09 07:00N 30°04' W 093°27'3 5.7
2017-Dec-09 06:31N 30°04' W 093°31'3 5.9
2017-Dec-09 06:01N 30°04' W 093°34'3 6.3
2017-Dec-09 05:31N 30°04' W 093°38'3 6.0
2017-Dec-09 04:59N 30°03' W 093°41'0 0.0
2017-Dec-09 04:29N 30°03' W 093°41'1 1.1
2017-Dec-09 04:00N 30°03' W 093°42'21 1.3
2017-Dec-08 12:27N 30°06' W 093°18'0 0.0
2017-Dec-08 10:36N 30°06' W 093°18'0 0.1
2017-Dec-08 10:30N 30°06' W 093°18'0 0.0
2017-Dec-08 10:00N 30°06' W 093°18'0 0.1
2017-Dec-08 09:30N 30°06' W 093°18'1 1.7
2017-Dec-08 08:59N 30°05' W 093°17'2 3.2
2017-Dec-08 08:30N 30°04' W 093°16'1 1.4
2017-Dec-08 08:00N 30°03' W 093°16'0 0.0
2017-Dec-08 07:30N 30°03' W 093°16'0 0.1
2017-Dec-08 07:00N 30°03' W 093°16'1 1.7
2017-Dec-08 06:28N 30°03' W 093°16'0 0.0
2017-Dec-08 05:58N 30°03' W 093°16'0 0.0
2017-Dec-08 05:28N 30°03' W 093°16'0 0.0
2017-Dec-08 04:58N 30°03' W 093°16'0 0.0
2017-Dec-08 04:28N 30°03' W 093°16'0 0.3
2017-Dec-08 03:58N 30°02' W 093°16'2 3.5
2017-Dec-08 03:30N 30°01' W 093°14'2 3.9
2017-Dec-08 02:59N 29°60' W 093°13'0 0.4
2017-Dec-08 02:29N 29°59' W 093°13'0 0.0
2017-Dec-08 01:59N 29°59' W 093°13'0 0.0
2017-Dec-08 01:29N 29°59' W 093°13'0 0.0
2017-Dec-08 00:59N 29°59' W 093°13'0 0.0
2017-Dec-08 00:29N 29°59' W 093°13'0 0.0
2017-Dec-07 23:59N 29°59' W 093°13'0 0.2
2017-Dec-07 23:29N 29°59' W 093°13'1 1.6
2017-Dec-07 23:01N 29°59' W 093°12'2 3.7
2017-Dec-07 22:31N 29°57' W 093°11'2 4.5
2017-Dec-07 22:01N 29°56' W 093°09'2 4.8
2017-Dec-07 21:30N 29°56' W 093°06'2 3.7
2017-Dec-07 20:57N 29°56' W 093°04'32 4.7
2017-Dec-07 14:12N 29°54' W 092°27'2 5.5
2017-Dec-07 13:53N 29°53' W 092°25'2 4.9
2017-Dec-07 13:24N 29°52' W 092°23'2 4.5
2017-Dec-07 13:00N 29°51' W 092°21'2 3.0
2017-Dec-07 12:31N 29°50' W 092°19'2 3.4
2017-Dec-07 12:00N 29°50' W 092°18'2 4.5
2017-Dec-07 11:30N 29°48' W 092°16'3 5.0
2017-Dec-07 11:00N 29°47' W 092°13'2 3.9
2017-Dec-07 10:29N 29°47' W 092°11'2 3.7
2017-Dec-07 10:00N 29°47' W 092°09'2 4.1
2017-Dec-07 09:30N 29°48' W 092°07'2 4.0
2017-Dec-07 09:00N 29°48' W 092°04'2 3.9
2017-Dec-07 08:30N 29°49' W 092°02'3 4.3
2017-Dec-07 07:55N 29°50' W 091°60'2 4.2
2017-Dec-07 07:30N 29°50' W 091°58'2 4.1
2017-Dec-07 07:00N 29°51' W 091°55'  

Dump ship's entire track history